createdAt,value
2023-09-27T00:03:18.965Z,21.2
2023-09-27T00:08:18.985Z,21.2
2023-09-27T00:13:18.958Z,21.1
2023-09-27T00:18:18.922Z,21.2
2023-09-27T00:23:19.016Z,21.2
2023-09-27T00:28:18.929Z,21.1
2023-09-27T00:33:19.005Z,21.2
2023-09-27T00:38:18.942Z,21.1
2023-09-27T00:43:18.905Z,21.1
2023-09-27T00:48:19.000Z,21.1
2023-09-27T00:53:18.975Z,21.1
2023-09-27T00:58:18.890Z,21
2023-09-27T01:03:19.044Z,21
2023-09-27T01:08:18.961Z,21
2023-09-27T01:13:18.946Z,21
2023-09-27T01:18:19.047Z,20.9
2023-09-27T01:23:18.939Z,20.9
2023-09-27T01:28:18.938Z,20.9
2023-09-27T01:33:18.980Z,20.9
2023-09-27T01:38:18.917Z,20.8
2023-09-27T01:43:18.906Z,20.8
2023-09-27T01:48:19.074Z,20.8
2023-09-27T01:53:18.935Z,20.8
2023-09-27T01:58:18.992Z,20.8
2023-09-27T02:03:19.071Z,20.8
2023-09-27T02:08:19.027Z,20.8
2023-09-27T02:13:19.017Z,20.7
2023-09-27T02:18:19.018Z,20.7
2023-09-27T02:23:19.042Z,20.6
2023-09-27T02:28:18.939Z,20.6
2023-09-27T02:33:18.993Z,20.5
2023-09-27T02:38:18.986Z,20.5
2023-09-27T02:43:18.979Z,20.5
2023-09-27T02:48:19.064Z,20.5
2023-09-27T02:53:19.062Z,20.5
2023-09-27T02:58:19.007Z,20.5
2023-09-27T03:03:19.002Z,20.5
2023-09-27T03:08:19.036Z,20.4
2023-09-27T03:13:19.003Z,20.4
2023-09-27T03:18:19.054Z,20.4
2023-09-27T03:23:19.015Z,20.4
2023-09-27T03:28:19.002Z,20.3
2023-09-27T03:33:19.022Z,20.3
2023-09-27T03:38:19.004Z,20.3
2023-09-27T03:43:18.980Z,20.2
2023-09-27T03:48:19.124Z,20.2
2023-09-27T03:53:19.021Z,20.1
2023-09-27T03:58:19.153Z,20.1
2023-09-27T04:03:19.104Z,20.1
2023-09-27T04:08:19.057Z,20
2023-09-27T04:13:19.048Z,20
2023-09-27T04:18:19.226Z,20
2023-09-27T04:23:19.033Z,19.9
2023-09-27T04:28:18.994Z,19.9
2023-09-27T04:33:19.062Z,19.9
2023-09-27T04:38:19.043Z,19.9
2023-09-27T04:43:18.966Z,19.9
2023-09-27T04:48:19.009Z,19.9
2023-09-27T04:53:19.028Z,19.9
2023-09-27T04:58:19.097Z,19.8
2023-09-27T05:03:19.123Z,19.8
2023-09-27T05:08:19.051Z,19.7
2023-09-27T05:13:18.976Z,19.7
2023-09-27T05:18:19.035Z,19.7
2023-09-27T05:23:19.006Z,19.6
2023-09-27T05:28:19.093Z,19.6
2023-09-27T05:33:19.058Z,19.6
2023-09-27T05:38:24.013Z,19.6
2023-09-27T05:43:19.057Z,19.6
2023-09-27T05:48:19.077Z,19.6
2023-09-27T05:53:19.032Z,19.6
2023-09-27T05:58:19.056Z,19.6
2023-09-27T06:03:19.064Z,19.6
2023-09-27T06:08:19.075Z,19.6
2023-09-27T06:13:18.988Z,19.6
2023-09-27T06:18:19.142Z,19.6
2023-09-27T06:23:19.032Z,19.6
2023-09-27T06:28:19.035Z,19.6
2023-09-27T06:33:19.050Z,19.6
2023-09-27T06:38:19.087Z,19.7
2023-09-27T06:43:19.052Z,19.7
2023-09-27T06:48:19.218Z,19.7
2023-09-27T06:53:21.954Z,19.8
2023-09-27T06:58:19.021Z,19.9
2023-09-27T07:03:19.150Z,19.9
2023-09-27T07:08:19.090Z,19.9
2023-09-27T07:13:19.056Z,20
2023-09-27T07:18:19.273Z,20
2023-09-27T07:23:19.115Z,20.1
2023-09-27T07:28:19.070Z,20.1
2023-09-27T07:33:19.134Z,20.2
2023-09-27T07:38:19.063Z,20.3
2023-09-27T07:43:19.091Z,20.3
2023-09-27T07:48:19.146Z,20.4
2023-09-27T07:53:19.112Z,20.4
2023-09-27T07:58:19.048Z,20.5
2023-09-27T08:03:19.294Z,20.6
2023-09-27T08:08:19.122Z,20.7
2023-09-27T08:13:19.085Z,20.7
2023-09-27T08:18:19.140Z,20.8
2023-09-27T08:23:19.157Z,20.9
2023-09-27T08:28:19.155Z,21
2023-09-27T08:33:19.192Z,21.1
2023-09-27T08:38:19.094Z,21.1
2023-09-27T08:43:19.067Z,21.2
2023-09-27T08:48:19.134Z,21.3
2023-09-27T08:53:19.152Z,21.4
2023-09-27T08:58:19.053Z,21.4
2023-09-27T09:03:19.168Z,21.5
2023-09-27T09:08:23.710Z,21.5
2023-09-27T09:13:19.047Z,21.7
2023-09-27T09:18:19.141Z,21.7
2023-09-27T09:23:19.130Z,21.8
2023-09-27T09:28:19.064Z,21.8
2023-09-27T09:33:19.283Z,21.9
2023-09-27T09:38:19.157Z,22.1
2023-09-27T09:43:19.100Z,22.2
2023-09-27T09:48:19.159Z,22.3
2023-09-27T09:53:19.162Z,22.4
2023-09-27T09:58:19.110Z,22.5
2023-09-27T10:03:19.225Z,22.6
2023-09-27T10:08:19.132Z,22.7
2023-09-27T10:13:19.128Z,22.8
2023-09-27T10:18:19.144Z,23
2023-09-27T10:23:19.176Z,23.1
2023-09-27T10:28:19.128Z,23.2
2023-09-27T10:33:19.156Z,23.4
2023-09-27T10:38:19.172Z,23.5
2023-09-27T10:43:19.442Z,23.7
2023-09-27T10:48:19.162Z,23.8
2023-09-27T10:53:19.147Z,23.9
2023-09-27T10:58:19.128Z,24
2023-09-27T11:03:19.396Z,24
2023-09-27T11:08:19.277Z,24
2023-09-27T11:13:19.133Z,24.1
2023-09-27T11:18:19.241Z,24.1
2023-09-27T11:23:19.570Z,24.1
2023-09-27T11:28:19.293Z,24.2
2023-09-27T11:33:19.647Z,24.2
2023-09-27T11:38:19.097Z,24.2
2023-09-27T11:43:19.403Z,24.3
2023-09-27T11:48:19.120Z,24.3
2023-09-27T11:53:19.163Z,24.4
2023-09-27T11:58:19.088Z,24.4
2023-09-27T12:03:19.216Z,24.5
2023-09-27T12:08:19.181Z,24.5
2023-09-27T12:13:19.134Z,24.5
2023-09-27T12:18:19.252Z,24.6
2023-09-27T12:23:19.147Z,24.6
2023-09-27T12:28:19.146Z,24.7
2023-09-27T12:33:20.243Z,24.8
2023-09-27T12:38:19.216Z,24.9
2023-09-27T12:43:19.134Z,25
2023-09-27T12:48:19.174Z,25.2
2023-09-27T12:53:19.376Z,25.3
2023-09-27T12:58:19.208Z,25.4
2023-09-27T13:03:19.238Z,25.4
2023-09-27T13:08:19.168Z,25.4
2023-09-27T13:13:19.208Z,25.4
2023-09-27T13:18:19.296Z,25.5
2023-09-27T13:23:19.145Z,25.5
2023-09-27T13:28:19.181Z,25.6
2023-09-27T13:33:19.358Z,25.7
2023-09-27T13:38:19.178Z,25.7
2023-09-27T13:43:19.242Z,25.8
2023-09-27T13:48:19.438Z,25.8
2023-09-27T13:53:19.207Z,26
2023-09-27T13:58:19.174Z,26
2023-09-27T14:03:19.310Z,26.2
2023-09-27T14:08:19.250Z,26.3
2023-09-27T14:13:19.223Z,26.4
2023-09-27T14:18:19.276Z,26.3
2023-09-27T14:23:19.207Z,26.3
2023-09-27T14:28:19.229Z,26.4
2023-09-27T14:33:19.300Z,26.3
2023-09-27T14:38:19.241Z,26.3
2023-09-27T14:43:19.308Z,26.3
2023-09-27T14:48:19.231Z,26.2
2023-09-27T14:53:19.279Z,26.2
2023-09-27T14:58:19.312Z,26.2
2023-09-27T15:03:19.412Z,26.2
2023-09-27T15:08:19.237Z,26.1
2023-09-27T15:13:19.314Z,26.1
2023-09-27T15:18:19.264Z,26.1
2023-09-27T15:23:19.480Z,26
2023-09-27T15:28:19.224Z,26
2023-09-27T15:33:19.225Z,26
2023-09-27T15:38:19.206Z,26
2023-09-27T15:43:19.271Z,25.9
2023-09-27T15:48:19.257Z,26
2023-09-27T15:53:19.265Z,25.9
2023-09-27T15:58:19.264Z,25.9
2023-09-27T16:03:19.357Z,25.9
2023-09-27T16:08:19.246Z,25.9
2023-09-27T16:13:19.242Z,25.8
2023-09-27T16:18:19.242Z,25.8
2023-09-27T16:23:19.258Z,25.7
2023-09-27T16:28:19.531Z,25.7
2023-09-27T16:33:19.701Z,25.7
2023-09-27T16:38:19.263Z,25.8
2023-09-27T16:43:19.229Z,25.7
2023-09-27T16:48:19.516Z,25.7
2023-09-27T16:53:19.326Z,25.7
2023-09-27T16:58:19.273Z,25.7
2023-09-27T17:03:19.309Z,25.6
2023-09-27T17:08:20.116Z,25.6
2023-09-27T17:13:19.272Z,25.6
2023-09-27T17:18:19.310Z,25.6
2023-09-27T17:23:19.294Z,25.6
2023-09-27T17:28:19.314Z,25.6
2023-09-27T17:33:19.364Z,25.5
2023-09-27T17:38:20.234Z,25.5
2023-09-27T17:43:19.230Z,25.5
2023-09-27T17:48:19.245Z,25.4
2023-09-27T17:53:19.340Z,25.4
2023-09-27T17:58:19.381Z,25.4
2023-09-27T18:03:19.333Z,25.4
2023-09-27T18:08:19.328Z,25.4
2023-09-27T18:13:19.716Z,25.4
2023-09-27T18:18:19.343Z,25.3
2023-09-27T18:23:19.254Z,25.3
2023-09-27T18:28:19.293Z,25.3
2023-09-27T18:33:19.298Z,25.2
2023-09-27T18:38:19.306Z,25.2
2023-09-27T18:43:20.999Z,25.2
2023-09-27T18:48:19.539Z,25.2
2023-09-27T18:53:19.300Z,25.1
2023-09-27T18:58:19.491Z,25.1
2023-09-27T19:03:19.253Z,25.1
2023-09-27T19:08:19.294Z,25
2023-09-27T19:13:19.250Z,25
2023-09-27T19:18:19.321Z,25
2023-09-27T19:23:19.337Z,25
2023-09-27T19:28:19.279Z,25
2023-09-27T19:33:19.263Z,25
2023-09-27T19:38:19.327Z,25
2023-09-27T19:43:19.302Z,25
2023-09-27T19:48:19.326Z,25
2023-09-27T19:53:19.324Z,25
2023-09-27T19:58:19.398Z,24.9
2023-09-27T20:03:19.422Z,24.9
2023-09-27T20:08:19.388Z,24.9
2023-09-27T20:13:19.324Z,24.9
2023-09-27T20:18:19.325Z,24.9
2023-09-27T20:23:19.318Z,24.8
2023-09-27T20:28:19.362Z,24.8
2023-09-27T20:33:19.326Z,24.8
2023-09-27T20:38:19.330Z,24.7
2023-09-27T20:43:19.334Z,24.7
2023-09-27T20:48:19.327Z,24.7
2023-09-27T20:53:19.321Z,24.7
2023-09-27T20:58:19.364Z,24.7
2023-09-27T21:03:19.357Z,24.7
2023-09-27T21:08:19.324Z,24.7
2023-09-27T21:13:19.402Z,24.7
2023-09-27T21:18:19.378Z,24.7
2023-09-27T21:23:19.332Z,24.7
2023-09-27T21:28:19.338Z,24.7
2023-09-27T21:33:19.346Z,24.7
2023-09-27T21:38:19.383Z,24.7
2023-09-27T21:43:19.321Z,24.7
2023-09-27T21:48:19.378Z,24.7
2023-09-27T21:53:19.376Z,24.6
2023-09-27T21:58:19.332Z,24.6
2023-09-27T22:03:19.371Z,24.5
2023-09-27T22:08:19.373Z,24.5
2023-09-27T22:13:19.357Z,24.5
2023-09-27T22:18:19.385Z,24.5
2023-09-27T22:23:19.381Z,24.4
2023-09-27T22:28:19.368Z,24.4
2023-09-27T22:33:19.356Z,24.3
2023-09-27T22:38:19.332Z,24.3
2023-09-27T22:43:19.405Z,24.3
2023-09-27T22:48:19.397Z,24.2
2023-09-27T22:53:19.380Z,24.1
2023-09-27T22:58:19.521Z,24.1
2023-09-27T23:03:19.428Z,24
2023-09-27T23:08:19.396Z,23.9
2023-09-27T23:13:19.436Z,23.9
2023-09-27T23:18:19.353Z,23.8
2023-09-27T23:23:19.443Z,23.8
2023-09-27T23:28:19.540Z,23.8
2023-09-27T23:33:19.377Z,23.7
2023-09-27T23:38:19.402Z,23.7
2023-09-27T23:43:19.358Z,23.6
2023-09-27T23:48:19.421Z,23.6
2023-09-27T23:53:19.431Z,23.6
2023-09-27T23:58:19.618Z,23.5
